TFM - Tactical Decision Aid
ID: Runway Winds: CIG/VIS Threshold:

KHBG - Hattiesburg/Chain Mu, MS, US

Updated at: 0430 UTC 26 Sep 2018
Latest TAF at: 2331 UTC 25 Sep 2018

TAF Board

Time0353Z 26/05Z 26/06Z 26/07Z 26/08Z 26/09Z 26/10Z 26/11Z 26/12Z 26/13Z 26/14Z 26/15Z 26/16Z 26/17Z>>
Type OBS PRVL PRVL PRVL PRVL PRVL PRVL PRVL PRVL PRVL PRVL PRVL PRVL PRVL
VIS 10 >6 >6 >6 >6 >6 >6 >6 >6 >6 >6 >6 >6 >6
CIG -- 90 90 90 90 90 90 90 15 15 15 90 90 90
Cover FEW BKN BKN BKN BKN BKN BKN BKN BKN BKN BKN BKN BKN BKN
FltCat VFR VFR VFR VFR VFR VFR VFR VFR MVFR MVFR MVFR VFR VFR VFR
WX -- -- -- -- -- -- -- -- VCSH VCSH VCSH VCTS VCTS VCTS
WDir VRB 160 160 160 160 160 160 160 VRB VRB VRB 220 220 220
WSpd 0 3 3 3 3 3 3 3 0 0 0 4 4 4
WGst -- -- -- -- -- -- -- -- -- -- -- -- -- --

TDA Impact Legend

  None Marginal Slight Moderate High
Visibility (sm) >5 3≤X≤5 2≤X<3 0.75≤X<2 <0.75
Ceiling (100 ft) >30 10≤X≤30 8≤X<10 2≤X<8 <2
Wind Speed (kt) <15 15≤X<25 25≤X<30 ≥30
Wind Gust (kt) <15 15≤X<25 25≤X<35 ≥35
Weather No Wx Reported VCTS -TS,-FZRA TS,FZRA +TS,+FZRA
TAF
KHBG 252331Z 2600/2624 16005KT P6SM VCSH SCT090
  FM260400 16003KT P6SM BKN090
  FM261200 00000KT P6SM VCSH BKN015 BKN090
  FM261500 22004KT P6SM VCTS BKN090CB
  FM262100 19003KT P6SM -SHRA VCTS BKN090CB


METAR
KHBG 260353Z AUTO 00000KT 10SM FEW100 24/23 A3008 RMK AO2 SLP182 T02440233 TSNO
KHBG 260253Z AUTO 20005KT 10SM CLR 24/23 A3007 RMK AO2 SLP179 T02440233 52013 TSNO
KHBG 260153Z AUTO 00000KT 10SM BKN100 24/23 A3006 RMK AO2 SLP175 T02390233 TSNO

Radar Display
Forecast Discussion